sensor_id;sensor_type;location;lat;lon;timestamp;pressure;altitude;pressure_sealevel;temperature;humidity
78685;BME280;68002;52.310;6.990;2023-12-07T00:01:42;101566.00;;;0.76;100.00
78685;BME280;68002;52.310;6.990;2023-12-07T00:04:07;101563.50;;;0.73;100.00
78685;BME280;68002;52.310;6.990;2023-12-07T00:06:32;101573.91;;;0.76;100.00
78685;BME280;68002;52.310;6.990;2023-12-07T00:08:57;101574.94;;;0.72;100.00
78685;BME280;68002;52.310;6.990;2023-12-07T00:11:22;101570.66;;;0.69;100.00
78685;BME280;68002;52.310;6.990;2023-12-07T00:13:48;101569.81;;;0.69;100.00
78685;BME280;68002;52.310;6.990;2023-12-07T00:16:13;101563.56;;;0.71;100.00
78685;BME280;68002;52.310;6.990;2023-12-07T00:18:38;101566.13;;;0.73;100.00
78685;BME280;68002;52.310;6.990;2023-12-07T00:21:03;101568.84;;;0.71;100.00
78685;BME280;68002;52.310;6.990;2023-12-07T00:23:28;101572.31;;;0.72;100.00
78685;BME280;68002;52.310;6.990;2023-12-07T00:25:53;101576.66;;;0.73;100.00
78685;BME280;68002;52.310;6.990;2023-12-07T00:28:19;101575.06;;;0.69;100.00
78685;BME280;68002;52.310;6.990;2023-12-07T00:30:44;101575.13;;;0.67;100.00
78685;BME280;68002;52.310;6.990;2023-12-07T00:33:09;101570.88;;;0.63;100.00
78685;BME280;68002;52.310;6.990;2023-12-07T00:35:34;101568.19;;;0.65;100.00
78685;BME280;68002;52.310;6.990;2023-12-07T00:37:59;101570.69;;;0.68;100.00
78685;BME280;68002;52.310;6.990;2023-12-07T00:40:24;101574.25;;;0.67;100.00
78685;BME280;68002;52.310;6.990;2023-12-07T00:42:49;101576.28;;;0.60;100.00
78685;BME280;68002;52.310;6.990;2023-12-07T00:45:15;101578.22;;;0.55;100.00
78685;BME280;68002;52.310;6.990;2023-12-07T00:47:40;101579.28;;;0.50;100.00
78685;BME280;68002;52.310;6.990;2023-12-07T00:50:05;101586.38;;;0.48;100.00
78685;BME280;68002;52.310;6.990;2023-12-07T00:52:30;101574.97;;;0.49;100.00
78685;BME280;68002;52.310;6.990;2023-12-07T00:54:55;101580.38;;;0.44;100.00
78685;BME280;68002;52.310;6.990;2023-12-07T00:57:20;101578.75;;;0.42;100.00
78685;BME280;68002;52.310;6.990;2023-12-07T00:59:46;101577.94;;;0.40;100.00
78685;BME280;68002;52.310;6.990;2023-12-07T01:02:11;101588.47;;;0.40;100.00
78685;BME280;68002;52.310;6.990;2023-12-07T01:04:36;101592.84;;;0.39;100.00
78685;BME280;68002;52.310;6.990;2023-12-07T01:07:01;101584.91;;;0.41;100.00
78685;BME280;68002;52.310;6.990;2023-12-07T01:09:26;101588.28;;;0.44;100.00
78685;BME280;68002;52.310;6.990;2023-12-07T01:11:51;101590.97;;;0.43;100.00
78685;BME280;68002;52.310;6.990;2023-12-07T01:14:17;101585.84;;;0.40;100.00
78685;BME280;68002;52.310;6.990;2023-12-07T01:16:42;101586.63;;;0.42;100.00
78685;BME280;68002;52.310;6.990;2023-12-07T01:19:07;101597.03;;;0.45;100.00
78685;BME280;68002;52.310;6.990;2023-12-07T01:21:33;101588.25;;;0.46;100.00
78685;BME280;68002;52.310;6.990;2023-12-07T01:23:58;101594.34;;;0.46;100.00
78685;BME280;68002;52.310;6.990;2023-12-07T01:26:23;101601.28;;;0.49;100.00
78685;BME280;68002;52.310;6.990;2023-12-07T01:28:48;101601.22;;;0.50;100.00
78685;BME280;68002;52.310;6.990;2023-12-07T01:31:13;101601.09;;;0.53;100.00
78685;BME280;68002;52.310;6.990;2023-12-07T01:33:38;101598.47;;;0.53;100.00
78685;BME280;68002;52.310;6.990;2023-12-07T01:36:03;101604.44;;;0.58;100.00
78685;BME280;68002;52.310;6.990;2023-12-07T01:38:29;101597.44;;;0.57;100.00
78685;BME280;68002;52.310;6.990;2023-12-07T01:40:54;101591.31;;;0.57;100.00
78685;BME280;68002;52.310;6.990;2023-12-07T01:43:19;101591.38;;;0.55;100.00
78685;BME280;68002;52.310;6.990;2023-12-07T01:45:44;101605.28;;;0.59;100.00
78685;BME280;68002;52.310;6.990;2023-12-07T01:48:09;101605.28;;;0.59;100.00
78685;BME280;68002;52.310;6.990;2023-12-07T01:50:34;101610.50;;;0.60;100.00
78685;BME280;68002;52.310;6.990;2023-12-07T01:53:02;101614.84;;;0.61;100.00
78685;BME280;68002;52.310;6.990;2023-12-07T01:55:28;101615.69;;;0.62;100.00
78685;BME280;68002;52.310;6.990;2023-12-07T01:57:55;101612.94;;;0.65;100.00
78685;BME280;68002;52.310;6.990;2023-12-07T02:00:20;101610.09;;;0.71;100.00
78685;BME280;68002;52.310;6.990;2023-12-07T02:02:45;101610.91;;;0.73;100.00
78685;BME280;68002;52.310;6.990;2023-12-07T02:05:12;101602.88;;;0.76;100.00
78685;BME280;68002;52.310;6.990;2023-12-07T02:07:37;101604.47;;;0.80;100.00
78685;BME280;68002;52.310;6.990;2023-12-07T02:10:04;101601.72;;;0.83;100.00
78685;BME280;68002;52.310;6.990;2023-12-07T02:12:29;101603.44;;;0.84;100.00
78685;BME280;68002;52.310;6.990;2023-12-07T02:14:54;101602.50;;;0.85;100.00
78685;BME280;68002;52.310;6.990;2023-12-07T02:17:41;101603.25;;;0.88;100.00
78685;BME280;68002;52.310;6.990;2023-12-07T02:22:41;101604.19;;;0.87;100.00
78685;BME280;68002;52.310;6.990;2023-12-07T02:25:08;101607.63;;;0.89;100.00
78685;BME280;68002;52.310;6.990;2023-12-07T02:27:34;101607.56;;;0.91;100.00
78685;BME280;68002;52.310;6.990;2023-12-07T02:29:59;101608.44;;;0.90;100.00
78685;BME280;68002;52.310;6.990;2023-12-07T02:32:24;101615.56;;;0.88;100.00
78685;BME280;68002;52.310;6.990;2023-12-07T02:34:49;101621.13;;;0.80;100.00
78685;BME280;68002;52.310;6.990;2023-12-07T02:37:15;101616.03;;;0.76;100.00
78685;BME280;68002;52.310;6.990;2023-12-07T02:39:40;101609.97;;;0.74;100.00
78685;BME280;68002;52.310;6.990;2023-12-07T02:42:05;101616.22;;;0.71;100.00
78685;BME280;68002;52.310;6.990;2023-12-07T02:44:30;101613.63;;;0.70;100.00
78685;BME280;68002;52.310;6.990;2023-12-07T02:46:56;101612.81;;;0.68;100.00
78685;BME280;68002;52.310;6.990;2023-12-07T02:49:23;101610.19;;;0.68;100.00
78685;BME280;68002;52.310;6.990;2023-12-07T02:51:48;101610.31;;;0.65;100.00
78685;BME280;68002;52.310;6.990;2023-12-07T02:54:13;101598.97;;;0.63;100.00
78685;BME280;68002;52.310;6.990;2023-12-07T02:56:38;101610.50;;;0.60;100.00
78685;BME280;68002;52.310;6.990;2023-12-07T02:59:03;101600.81;;;0.61;100.00
78685;BME280;68002;52.310;6.990;2023-12-07T03:01:28;101606.94;;;0.61;100.00
78685;BME280;68002;52.310;6.990;2023-12-07T03:03:53;101603.56;;;0.58;100.00
78685;BME280;68002;52.310;6.990;2023-12-07T03:06:19;101608.09;;;0.54;100.00
78685;BME280;68002;52.310;6.990;2023-12-07T03:08:44;101609.84;;;0.54;100.00
78685;BME280;68002;52.310;6.990;2023-12-07T03:11:09;101601.28;;;0.49;100.00
78685;BME280;68002;52.310;6.990;2023-12-07T03:13:34;101603.16;;;0.45;100.00
78685;BME280;68002;52.310;6.990;2023-12-07T03:15:59;101599.84;;;0.40;100.00
78685;BME280;68002;52.310;6.990;2023-12-07T03:18:24;101597.44;;;0.34;100.00
78685;BME280;68002;52.310;6.990;2023-12-07T03:20:49;101609.84;;;0.31;100.00
78685;BME280;68002;52.310;6.990;2023-12-07T03:23:14;101611.00;;;0.24;100.00
78685;BME280;68002;52.310;6.990;2023-12-07T03:25:39;101608.69;;;0.15;100.00
78685;BME280;68002;52.310;6.990;2023-12-07T03:28:05;101608.09;;;0.07;100.00
78685;BME280;68002;52.310;6.990;2023-12-07T03:30:30;101617.06;;;0.01;100.00
78685;BME280;68002;52.310;6.990;2023-12-07T03:32:55;101618.06;;;-0.03;100.00
78685;BME280;68002;52.310;6.990;2023-12-07T03:35:20;101614.00;;;-0.12;100.00
78685;BME280;68002;52.310;6.990;2023-12-07T03:37:45;101617.75;;;-0.19;100.00
78685;BME280;68002;52.310;6.990;2023-12-07T03:40:10;101616.28;;;-0.27;100.00
78685;BME280;68002;52.310;6.990;2023-12-07T03:42:35;101611.19;;;-0.32;100.00
78685;BME280;68002;52.310;6.990;2023-12-07T03:45:00;101613.16;;;-0.38;100.00
78685;BME280;68002;52.310;6.990;2023-12-07T03:47:26;101614.19;;;-0.42;100.00
78685;BME280;68002;52.310;6.990;2023-12-07T03:49:51;101617.81;;;-0.46;100.00
78685;BME280;68002;52.310;6.990;2023-12-07T03:52:16;101616.25;;;-0.52;100.00
78685;BME280;68002;52.310;6.990;2023-12-07T03:54:42;101625.94;;;-0.54;100.00
78685;BME280;68002;52.310;6.990;2023-12-07T03:57:07;101624.28;;;-0.56;100.00
78685;BME280;68002;52.310;6.990;2023-12-07T03:59:32;101620.03;;;-0.60;100.00
78685;BME280;68002;52.310;6.990;2023-12-07T04:01:57;101622.81;;;-0.65;100.00
78685;BME280;68002;52.310;6.990;2023-12-07T04:04:22;101636.84;;;-0.66;100.00
78685;BME280;68002;52.310;6.990;2023-12-07T04:06:47;101634.22;;;-0.66;100.00
78685;BME280;68002;52.310;6.990;2023-12-07T04:09:12;101630.81;;;-0.69;100.00
78685;BME280;68002;52.310;6.990;2023-12-07T04:11:37;101635.25;;;-0.70;100.00
78685;BME280;68002;52.310;6.990;2023-12-07T04:14:02;101634.47;;;-0.73;100.00
78685;BME280;68002;52.310;6.990;2023-12-07T04:16:28;101635.38;;;-0.74;100.00
78685;BME280;68002;52.310;6.990;2023-12-07T04:18:53;101639.00;;;-0.78;100.00
78685;BME280;68002;52.310;6.990;2023-12-07T04:21:18;101644.34;;;-0.81;100.00
78685;BME280;68002;52.310;6.990;2023-12-07T04:23:43;101644.47;;;-0.84;100.00
78685;BME280;68002;52.310;6.990;2023-12-07T04:26:08;101640.16;;;-0.87;100.00
78685;BME280;68002;52.310;6.990;2023-12-07T04:28:33;101646.34;;;-0.89;100.00
78685;BME280;68002;52.310;6.990;2023-12-07T04:30:58;101652.47;;;-0.89;100.00
78685;BME280;68002;52.310;6.990;2023-12-07T04:33:24;101653.22;;;-0.85;100.00
78685;BME280;68002;52.310;6.990;2023-12-07T04:35:49;101654.06;;;-0.83;100.00
78685;BME280;68002;52.310;6.990;2023-12-07T04:38:14;101649.66;;;-0.83;100.00
78685;BME280;68002;52.310;6.990;2023-12-07T04:40:39;101646.31;;;-0.88;100.00
78685;BME280;68002;52.310;6.990;2023-12-07T04:43:04;101645.41;;;-0.87;100.00
78685;BME280;68002;52.310;6.990;2023-12-07T04:45:29;101648.97;;;-0.89;100.00
78685;BME280;68002;52.310;6.990;2023-12-07T04:47:54;101638.63;;;-0.94;100.00
78685;BME280;68002;52.310;6.990;2023-12-07T04:50:19;101640.44;;;-0.96;100.00
78685;BME280;68002;52.310;6.990;2023-12-07T04:52:45;101641.34;;;-0.97;100.00
78685;BME280;68002;52.310;6.990;2023-12-07T04:55:10;101653.69;;;-0.99;100.00
78685;BME280;68002;52.310;6.990;2023-12-07T04:57:35;101652.84;;;-1.01;100.00
78685;BME280;68002;52.310;6.990;2023-12-07T05:00:00;101656.31;;;-1.01;100.00
78685;BME280;68002;52.310;6.990;2023-12-07T05:02:26;101639.72;;;-1.01;100.00
78685;BME280;68002;52.310;6.990;2023-12-07T05:04:51;101652.84;;;-1.01;100.00
78685;BME280;68002;52.310;6.990;2023-12-07T05:07:16;101644.06;;;-1.00;100.00
78685;BME280;68002;52.310;6.990;2023-12-07T05:09:41;101658.94;;;-1.01;100.00
78685;BME280;68002;52.310;6.990;2023-12-07T05:12:06;101656.25;;;-0.97;100.00
78685;BME280;68002;52.310;6.990;2023-12-07T05:14:32;101647.50;;;-0.98;100.00
78685;BME280;68002;52.310;6.990;2023-12-07T05:16:57;101654.56;;;-1.00;100.00
78685;BME280;68002;52.310;6.990;2023-12-07T05:19:22;101642.44;;;-1.04;100.00
78685;BME280;68002;52.310;6.990;2023-12-07T05:21:48;101652.09;;;-1.05;100.00
78685;BME280;68002;52.310;6.990;2023-12-07T05:24:13;101644.22;;;-1.05;100.00
78685;BME280;68002;52.310;6.990;2023-12-07T05:26:40;101648.59;;;-1.05;100.00
78685;BME280;68002;52.310;6.990;2023-12-07T05:29:05;101643.34;;;-1.05;100.00
78685;BME280;68002;52.310;6.990;2023-12-07T05:31:30;101650.25;;;-1.03;100.00
78685;BME280;68002;52.310;6.990;2023-12-07T05:33:55;101654.47;;;-0.97;100.00
78685;BME280;68002;52.310;6.990;2023-12-07T05:36:20;101649.91;;;-0.90;100.00
78685;BME280;68002;52.310;6.990;2023-12-07T05:38:46;101647.91;;;-0.82;100.00
78685;BME280;68002;52.310;6.990;2023-12-07T05:41:11;101643.38;;;-0.77;100.00
78685;BME280;68002;52.310;6.990;2023-12-07T05:43:36;101653.00;;;-0.78;100.00
78685;BME280;68002;52.310;6.990;2023-12-07T05:46:01;101648.56;;;-0.76;100.00
78685;BME280;68002;52.310;6.990;2023-12-07T05:48:26;101651.19;;;-0.76;100.00
78685;BME280;68002;52.310;6.990;2023-12-07T05:50:51;101647.63;;;-0.75;100.00
78685;BME280;68002;52.310;6.990;2023-12-07T05:53:16;101644.19;;;-0.75;100.00
78685;BME280;68002;52.310;6.990;2023-12-07T05:55:41;101652.00;;;-0.74;100.00
78685;BME280;68002;52.310;6.990;2023-12-07T05:58:06;101649.44;;;-0.75;100.00
78685;BME280;68002;52.310;6.990;2023-12-07T06:00:32;101653.72;;;-0.73;100.00
78685;BME280;68002;52.310;6.990;2023-12-07T06:02:57;101652.00;;;-0.74;100.00
78685;BME280;68002;52.310;6.990;2023-12-07T06:05:22;101620.03;;;-0.86;100.00
78685;BME280;68002;52.310;6.990;2023-12-07T06:07:47;101646.00;;;-0.77;100.00
78685;BME280;68002;52.310;6.990;2023-12-07T06:10:12;101646.81;;;-0.77;100.00
78685;BME280;68002;52.310;6.990;2023-12-07T06:12:37;101653.06;;;-0.79;100.00
78685;BME280;68002;52.310;6.990;2023-12-07T06:15:03;101656.63;;;-0.82;100.00
78685;BME280;68002;52.310;6.990;2023-12-07T06:17:28;101650.53;;;-0.82;100.00
78685;BME280;68002;52.310;6.990;2023-12-07T06:19:53;101647.22;;;-0.89;100.00
78685;BME280;68002;52.310;6.990;2023-12-07T06:22:18;101654.16;;;-0.86;100.00
78685;BME280;68002;52.310;6.990;2023-12-07T06:24:44;101654.22;;;-0.88;100.00
78685;BME280;68002;52.310;6.990;2023-12-07T06:27:09;101656.91;;;-0.91;100.00
78685;BME280;68002;52.310;6.990;2023-12-07T06:29:34;101658.66;;;-0.90;100.00
78685;BME280;68002;52.310;6.990;2023-12-07T06:31:59;101656.03;;;-0.91;100.00
78685;BME280;68002;52.310;6.990;2023-12-07T06:34:24;101657.66;;;-0.87;100.00
78685;BME280;68002;52.310;6.990;2023-12-07T06:36:49;101661.22;;;-0.88;100.00
78685;BME280;68002;52.310;6.990;2023-12-07T06:39:14;101662.88;;;-0.86;100.00
78685;BME280;68002;52.310;6.990;2023-12-07T06:41:39;101661.34;;;-0.93;100.00
78685;BME280;68002;52.310;6.990;2023-12-07T06:44:05;101660.41;;;-0.90;100.00
78685;BME280;68002;52.310;6.990;2023-12-07T06:46:30;101670.03;;;-0.91;100.00
78685;BME280;68002;52.310;6.990;2023-12-07T06:48:56;101664.03;;;-0.94;100.00
78685;BME280;68002;52.310;6.990;2023-12-07T06:51:21;101669.97;;;-0.89;100.00
78685;BME280;68002;52.310;6.990;2023-12-07T06:53:46;101673.47;;;-0.89;100.00
78685;BME280;68002;52.310;6.990;2023-12-07T06:56:11;101678.72;;;-0.89;100.00
78685;BME280;68002;52.310;6.990;2023-12-07T06:58:36;101691.97;;;-0.92;100.00
78685;BME280;68002;52.310;6.990;2023-12-07T07:01:01;101692.03;;;-0.95;100.00
78685;BME280;68002;52.310;6.990;2023-12-07T07:03:26;101696.28;;;-0.91;100.00
78685;BME280;68002;52.310;6.990;2023-12-07T07:05:52;101692.00;;;-0.93;100.00
78685;BME280;68002;52.310;6.990;2023-12-07T07:08:17;101696.25;;;-0.89;100.00
78685;BME280;68002;52.310;6.990;2023-12-07T07:10:43;101691.97;;;-0.92;100.00
78685;BME280;68002;52.310;6.990;2023-12-07T07:13:08;101679.59;;;-0.88;100.00
78685;BME280;68002;52.310;6.990;2023-12-07T07:15:33;101685.72;;;-0.88;100.00
78685;BME280;68002;52.310;6.990;2023-12-07T07:17:58;101677.84;;;-0.88;100.00
78685;BME280;68002;52.310;6.990;2023-12-07T07:20:24;101686.47;;;-0.84;100.00
78685;BME280;68002;52.310;6.990;2023-12-07T07:22:49;101685.47;;;-0.80;100.00
78685;BME280;68002;52.310;6.990;2023-12-07T07:25:14;101690.69;;;-0.79;100.00
78685;BME280;68002;52.310;6.990;2023-12-07T07:27:40;101695.78;;;-0.74;100.00
78685;BME280;68002;52.310;6.990;2023-12-07T07:30:05;101683.56;;;-0.75;100.00
78685;BME280;68002;52.310;6.990;2023-12-07T07:32:31;101692.34;;;-0.76;100.00
78685;BME280;68002;52.310;6.990;2023-12-07T07:34:56;101687.03;;;-0.75;100.00
78685;BME280;68002;52.310;6.990;2023-12-07T07:37:21;101693.91;;;-0.71;100.00
78685;BME280;68002;52.310;6.990;2023-12-07T07:39:47;101690.41;;;-0.70;100.00
78685;BME280;68002;52.310;6.990;2023-12-07T07:42:12;101692.88;;;-0.65;100.00
78685;BME280;68002;52.310;6.990;2023-12-07T07:44:37;101695.50;;;-0.65;100.00
78685;BME280;68002;52.310;6.990;2023-12-07T07:47:02;101700.63;;;-0.61;100.00
78685;BME280;68002;52.310;6.990;2023-12-07T07:49:27;101702.25;;;-0.57;100.00
78685;BME280;68002;52.310;6.990;2023-12-07T07:51:52;101700.38;;;-0.53;100.00
78685;BME280;68002;52.310;6.990;2023-12-07T07:54:17;101710.63;;;-0.46;100.00
78685;BME280;68002;52.310;6.990;2023-12-07T07:56:43;101701.97;;;-0.48;100.00
78685;BME280;68002;52.310;6.990;2023-12-07T07:59:08;101696.53;;;-0.43;100.00
78685;BME280;68002;52.310;6.990;2023-12-07T08:01:33;101693.72;;;-0.37;100.00
78685;BME280;68002;52.310;6.990;2023-12-07T08:03:58;101691.75;;;-0.31;100.00
78685;BME280;68002;52.310;6.990;2023-12-07T08:06:23;101684.63;;;-0.27;100.00
78685;BME280;68002;52.310;6.990;2023-12-07T08:08:48;101681.84;;;-0.23;100.00
78685;BME280;68002;52.310;6.990;2023-12-07T08:11:14;101675.47;;;-0.16;100.00
78685;BME280;68002;52.310;6.990;2023-12-07T08:13:39;101686.69;;;-0.11;100.00
78685;BME280;68002;52.310;6.990;2023-12-07T08:16:06;101684.78;;;-0.06;100.00
78685;BME280;68002;52.310;6.990;2023-12-07T08:18:32;101688.13;;;-0.01;100.00
78685;BME280;68002;52.310;6.990;2023-12-07T08:20:57;101682.75;;;0.03;100.00
78685;BME280;68002;52.310;6.990;2023-12-07T08:23:22;101686.13;;;0.06;100.00
78685;BME280;68002;52.310;6.990;2023-12-07T08:25:47;101692.94;;;0.12;100.00
78685;BME280;68002;52.310;6.990;2023-12-07T08:28:12;101685.75;;;0.17;100.00
78685;BME280;68002;52.310;6.990;2023-12-07T08:30:37;101694.38;;;0.22;100.00
78685;BME280;68002;52.310;6.990;2023-12-07T08:33:02;101692.38;;;0.28;100.00
78685;BME280;68002;52.310;6.990;2023-12-07T08:35:27;101693.06;;;0.33;100.00
78685;BME280;68002;52.310;6.990;2023-12-07T08:37:53;101699.88;;;0.39;100.00
78685;BME280;68002;52.310;6.990;2023-12-07T08:40:18;101702.34;;;0.43;100.00
78685;BME280;68002;52.310;6.990;2023-12-07T08:42:45;101703.91;;;0.49;100.00
78685;BME280;68002;52.310;6.990;2023-12-07T08:45:10;101708.97;;;0.55;100.00
78685;BME280;68002;52.310;6.990;2023-12-07T08:47:35;101703.53;;;0.59;100.00
78685;BME280;68002;52.310;6.990;2023-12-07T08:50:00;101688.41;;;0.64;100.00
78685;BME280;68002;52.310;6.990;2023-12-07T08:52:25;101683.81;;;0.71;100.00
78685;BME280;68002;52.310;6.990;2023-12-07T08:54:51;101683.63;;;0.75;100.00
78685;BME280;68002;52.310;6.990;2023-12-07T08:57:17;101687.66;;;0.85;100.00
78685;BME280;68002;52.310;6.990;2023-12-07T08:59:42;101695.47;;;0.87;100.00
78685;BME280;68002;52.310;6.990;2023-12-07T09:02:07;101697.97;;;0.91;100.00
78685;BME280;68002;52.310;6.990;2023-12-07T09:04:32;101700.41;;;0.96;100.00
78685;BME280;68002;52.310;6.990;2023-12-07T09:06:58;101683.56;;;1.00;100.00
78685;BME280;68002;52.310;6.990;2023-12-07T09:09:23;101690.59;;;0.99;100.00
78685;BME280;68002;52.310;6.990;2023-12-07T09:11:48;101686.09;;;1.03;100.00
78685;BME280;68002;52.310;6.990;2023-12-07T09:14:13;101691.34;;;1.03;100.00
78685;BME280;68002;52.310;6.990;2023-12-07T09:16:45;101693.81;;;1.08;100.00
78685;BME280;68002;52.310;6.990;2023-12-07T09:19:10;101685.91;;;1.08;100.00
78685;BME280;68002;52.310;6.990;2023-12-07T09:21:35;101697.19;;;1.11;100.00
78685;BME280;68002;52.310;6.990;2023-12-07T09:24:00;101693.53;;;1.15;100.00
78685;BME280;68002;52.310;6.990;2023-12-07T09:26:25;101693.34;;;1.20;100.00
78685;BME280;68002;52.310;6.990;2023-12-07T09:28:51;101695.81;;;1.24;100.00
78685;BME280;68002;52.310;6.990;2023-12-07T09:31:16;101687.66;;;1.30;100.00
78685;BME280;68002;52.310;6.990;2023-12-07T09:33:41;101684.03;;;1.33;100.00
78685;BME280;68002;52.310;6.990;2023-12-07T09:36:06;101683.81;;;1.39;100.00
78685;BME280;68002;52.310;6.990;2023-12-07T09:38:31;101684.31;;;1.48;100.00
78685;BME280;68002;52.310;6.990;2023-12-07T09:40:56;101676.13;;;1.54;100.00
78685;BME280;68002;52.310;6.990;2023-12-07T09:43:22;101681.09;;;1.62;100.00
78685;BME280;68002;52.310;6.990;2023-12-07T09:45:47;101681.75;;;1.67;100.00
78685;BME280;68002;52.310;6.990;2023-12-07T09:48:13;101672.88;;;1.69;100.00
78685;BME280;68002;52.310;6.990;2023-12-07T09:50:38;101673.63;;;1.73;100.00
78685;BME280;68002;52.310;6.990;2023-12-07T09:53:03;101669.88;;;1.78;100.00
78685;BME280;68002;52.310;6.990;2023-12-07T09:55:28;101682.16;;;1.79;100.00
78685;BME280;68002;52.310;6.990;2023-12-07T09:57:54;101683.72;;;1.83;100.00
78685;BME280;68002;52.310;6.990;2023-12-07T10:00:19;101678.41;;;1.85;100.00
78685;BME280;68002;52.310;6.990;2023-12-07T10:02:44;101671.97;;;1.90;100.00
78685;BME280;68002;52.310;6.990;2023-12-07T10:05:10;101669.97;;;1.97;100.00
78685;BME280;68002;52.310;6.990;2023-12-07T10:07:36;101661.19;;;1.96;100.00
78685;BME280;68002;52.310;6.990;2023-12-07T10:10:02;101664.75;;;1.95;100.00
78685;BME280;68002;52.310;6.990;2023-12-07T10:12:27;101660.22;;;1.99;100.00
78685;BME280;68002;52.310;6.990;2023-12-07T10:14:52;101658.28;;;2.02;100.00
78685;BME280;68002;52.310;6.990;2023-12-07T10:17:17;101658.94;;;2.08;100.00
78685;BME280;68002;52.310;6.990;2023-12-07T10:19:42;101646.41;;;2.13;100.00
78685;BME280;68002;52.310;6.990;2023-12-07T10:22:14;101651.44;;;2.19;100.00
78685;BME280;68002;52.310;6.990;2023-12-07T10:24:39;101640.22;;;2.14;100.00
78685;BME280;68002;52.310;6.990;2023-12-07T10:27:04;101626.78;;;2.20;100.00
78685;BME280;68002;52.310;6.990;2023-12-07T10:29:30;101630.25;;;2.20;100.00
78685;BME280;68002;52.310;6.990;2023-12-07T10:31:59;101618.06;;;2.18;100.00
78685;BME280;68002;52.310;6.990;2023-12-07T10:34:24;101622.13;;;2.25;100.00
78685;BME280;68002;52.310;6.990;2023-12-07T10:36:51;101614.34;;;2.22;100.00
78685;BME280;68002;52.310;6.990;2023-12-07T10:39:16;101614.94;;;2.28;100.00
78685;BME280;68002;52.310;6.990;2023-12-07T10:41:42;101613.03;;;2.32;100.00
78685;BME280;68002;52.310;6.990;2023-12-07T10:44:08;101610.19;;;2.36;100.00
78685;BME280;68002;52.310;6.990;2023-12-07T10:46:33;101612.47;;;2.44;100.00
78685;BME280;68002;52.310;6.990;2023-12-07T10:49:03;101606.91;;;2.50;100.00
78685;BME280;68002;52.310;6.990;2023-12-07T10:53:54;101608.41;;;2.55;100.00
78685;BME280;68002;52.310;6.990;2023-12-07T10:56:27;101609.94;;;2.61;100.00
78685;BME280;68002;52.310;6.990;2023-12-07T10:58:54;101603.59;;;2.65;100.00
78685;BME280;68002;52.310;6.990;2023-12-07T11:01:20;101603.44;;;2.68;100.00
78685;BME280;68002;52.310;6.990;2023-12-07T11:03:45;101607.09;;;2.65;100.00
78685;BME280;68002;52.310;6.990;2023-12-07T11:06:14;101597.44;;;2.64;100.00
78685;BME280;68002;52.310;6.990;2023-12-07T11:08:41;101591.00;;;2.70;100.00
78685;BME280;68002;52.310;6.990;2023-12-07T11:11:10;101587.31;;;2.74;100.00
78685;BME280;68002;52.310;6.990;2023-12-07T11:13:37;101580.16;;;2.76;100.00
78685;BME280;68002;52.310;6.990;2023-12-07T11:16:03;101579.81;;;2.83;100.00
78685;BME280;68002;52.310;6.990;2023-12-07T11:18:28;101571.81;;;2.85;100.00
78685;BME280;68002;52.310;6.990;2023-12-07T11:20:54;101571.81;;;2.85;100.00
78685;BME280;68002;52.310;6.990;2023-12-07T11:23:20;101568.19;;;2.87;100.00
78685;BME280;68002;52.310;6.990;2023-12-07T11:25:45;101579.38;;;2.92;100.00
78685;BME280;68002;52.310;6.990;2023-12-07T11:28:11;101566.16;;;2.92;100.00
78685;BME280;68002;52.310;6.990;2023-12-07T11:30:36;101563.38;;;2.95;100.00
78685;BME280;68002;52.310;6.990;2023-12-07T11:33:05;101559.66;;;2.99;100.00
78685;BME280;68002;52.310;6.990;2023-12-07T11:35:30;101565.84;;;2.98;100.00
78685;BME280;68002;52.310;6.990;2023-12-07T11:40:27;101553.81;;;2.93;100.00
78685;BME280;68002;52.310;6.990;2023-12-07T11:42:52;101555.16;;;3.01;100.00
78685;BME280;68002;52.310;6.990;2023-12-07T11:45:35;101555.44;;;2.95;100.00
78685;BME280;68002;52.310;6.990;2023-12-07T11:48:10;101556.47;;;2.93;100.00
78685;BME280;68002;52.310;6.990;2023-12-07T11:50:35;101542.16;;;2.97;100.00
78685;BME280;68002;52.310;6.990;2023-12-07T11:53:00;101540.28;;;2.99;100.00
78685;BME280;68002;52.310;6.990;2023-12-07T11:55:25;101530.59;;;2.99;100.00
78685;BME280;68002;52.310;6.990;2023-12-07T11:57:51;101528.66;;;3.03;100.00
78685;BME280;68002;52.310;6.990;2023-12-07T12:00:17;101533.78;;;3.06;100.00
78685;BME280;68002;52.310;6.990;2023-12-07T12:02:42;101538.84;;;3.11;100.00
78685;BME280;68002;52.310;6.990;2023-12-07T12:05:08;101537.88;;;3.13;100.00
78685;BME280;68002;52.310;6.990;2023-12-07T12:07:33;101537.53;;;3.19;100.00
78685;BME280;68002;52.310;6.990;2023-12-07T12:10:00;101529.84;;;3.32;100.00
78685;BME280;68002;52.310;6.990;2023-12-07T12:12:26;101526.13;;;3.36;100.00
78685;BME280;68002;52.310;6.990;2023-12-07T12:14:52;101522.19;;;3.44;100.00
78685;BME280;68002;52.310;6.990;2023-12-07T12:17:17;101513.13;;;3.48;100.00
78685;BME280;68002;52.310;6.990;2023-12-07T12:19:42;101505.84;;;3.53;100.00
78685;BME280;68002;52.310;6.990;2023-12-07T12:22:07;101506.31;;;3.61;100.00
78685;BME280;68002;52.310;6.990;2023-12-07T12:24:33;101502.97;;;3.58;100.00
78685;BME280;68002;52.310;6.990;2023-12-07T12:26:58;101506.56;;;3.57;100.00
78685;BME280;68002;52.310;6.990;2023-12-07T12:29:24;101495.50;;;3.66;100.00
78685;BME280;68002;52.310;6.990;2023-12-07T12:31:49;101489.94;;;3.70;100.00
78685;BME280;68002;52.310;6.990;2023-12-07T12:34:14;101486.13;;;3.76;100.00
78685;BME280;68002;52.310;6.990;2023-12-07T12:36:39;101481.69;;;3.76;100.00
78685;BME280;68002;52.310;6.990;2023-12-07T12:39:04;101472.22;;;3.72;100.00
78685;BME280;68002;52.310;6.990;2023-12-07T12:41:29;101476.91;;;3.67;100.00
78685;BME280;68002;52.310;6.990;2023-12-07T12:43:55;101473.06;;;3.73;100.00